PWSweather.com
Personal Weather Stations
Station Observations
ADLKOFEN
AdlkofenDE

AdlkofenDE

Lat: 48.5429, Lon: 12.2659

Elevation: 1591

Station Type: Netatmo

http://adlkofen-wetter.de

Latest ConditionsUpdated 9:25:00 PM GMT+01:01 Saturday, Jul 22, 2017
Currently Today's Max Today's Min Today's Average
Temperature 67.3°F19.6°C 89.6°F32.0°C 61.5°F16.4°C 74.0°F23.3°C
Dew Point 54.0°F12.2°C 63.0°F17.2°C 54.0°F12.2°C 58.9°F14.9°C
Winds 0.7 mph N1.1 kmh N 4.9 mph WNW7.9 kmh WNW - 1.7 mph 2.7 kmh
Wind Gusts 1.8 mph2.9 kmh 10.5 mph16.9 kmh - -
Humidity 67% 83% 38% 64%
Pressure 29.84 in1010.5 mb 29.87 in1011.5 mb 29.72 in1006.4 mb -
Hour Temp Dew Point Humidity Winds Wind Gusts Pressure Precip Precip Rate Daily Precip Total
09:25 PM 67.3°F19.6°C 54.0°F12.2°C 67% 0.7 mph N1.1 kmh N 1.8 mph2.9 kmh 29.84 in1010.5 mb 0.00 in0.0 mm 0.00 in0.0 mm 0.00 in0.0 mm
09:05 PM 68.4°F20.2°C 54.5°F12.5°C 66% 0.7 mph N1.1 kmh N 1.3 mph2.1 kmh 29.83 in1010.2 mb 0.00 in0.0 mm 0.00 in0.0 mm 0.00 in0.0 mm
08:54 PM 69.3°F20.7°C 54.9°F12.7°C 65% 0.6 mph NNE1.0 kmh NNE -- 29.83 in1010.2 mb 0.00 in0.0 mm 0.00 in0.0 mm 0.00 in0.0 mm
08:45 PM 70.0°F21.1°C 54.9°F12.7°C 63% 0.7 mph NW1.1 kmh NW 1.8 mph2.9 kmh 29.83 in1010.2 mb 0.00 in0.0 mm 0.00 in0.0 mm 0.00 in0.0 mm
08:24 PM 72.1°F22.3°C 55.2°F12.9°C 59% 0.7 mph NNW1.1 kmh NNW 1.3 mph2.1 kmh 29.83 in1010.2 mb 0.00 in0.0 mm 0.00 in0.0 mm 0.00 in0.0 mm
08:04 PM 75.2°F24.0°C 55.9°F13.3°C 54% 0.7 mph NNE1.1 kmh NNE 1.8 mph2.9 kmh 29.82 in1009.8 mb 0.00 in0.0 mm 0.00 in0.0 mm 0.00 in0.0 mm
07:54 PM 76.8°F24.9°C 56.5°F13.6°C 52% 0.6 mph NNE1.0 kmh NNE -- 29.82 in1009.8 mb 0.00 in0.0 mm 0.00 in0.0 mm 0.00 in0.0 mm
07:44 PM 78.8°F26.0°C 57.6°F14.2°C 50% 0.7 mph NE1.1 kmh NE 1.3 mph2.1 kmh 29.82 in1009.8 mb 0.00 in0.0 mm 0.00 in0.0 mm 0.00 in0.0 mm
07:24 PM 83.3°F28.5°C 59.0°F15.0°C 44% Calm Calm 1.3 mph2.1 kmh 29.82 in1009.8 mb 0.00 in0.0 mm 0.00 in0.0 mm 0.00 in0.0 mm
07:04 PM 87.1°F30.6°C 60.6°F15.9°C 40% 0.7 mph W1.1 kmh W 1.8 mph2.9 kmh 29.81 in1009.5 mb 0.00 in0.0 mm 0.00 in0.0 mm 0.00 in0.0 mm
06:54 PM 88.2°F31.2°C 61.2°F16.2°C 39% 0.6 mph SW1.0 kmh SW -- 29.80 in1009.1 mb 0.00 in0.0 mm 0.00 in0.0 mm 0.00 in0.0 mm
06:44 PM 88.9°F31.6°C 61.9°F16.6°C 39% 0.7 mph SW1.1 kmh SW 3.1 mph5.0 kmh 29.80 in1009.1 mb 0.00 in0.0 mm 0.00 in0.0 mm 0.00 in0.0 mm
06:24 PM 88.9°F31.6°C 61.3°F16.3°C 38% 1.3 mph W2.1 kmh W 2.5 mph4.0 kmh 29.80 in1009.1 mb 0.00 in0.0 mm 0.00 in0.0 mm 0.00 in0.0 mm
06:03 PM 89.6°F32.0°C 62.4°F16.9°C 39% 1.3 mph S2.1 kmh S 4.9 mph7.9 kmh 29.80 in1009.1 mb 0.00 in0.0 mm 0.00 in0.0 mm 0.00 in0.0 mm
05:53 PM 89.2°F31.8°C 62.1°F16.7°C 39% 1.2 mph SSW1.9 kmh SSW -- 29.80 in1009.1 mb 0.00 in0.0 mm 0.00 in0.0 mm 0.00 in0.0 mm
05:43 PM 88.5°F31.4°C 61.9°F16.6°C 40% 1.3 mph S2.1 kmh S 4.9 mph7.9 kmh 29.81 in1009.5 mb 0.00 in0.0 mm 0.00 in0.0 mm 0.00 in0.0 mm
05:23 PM 87.8°F31.0°C 61.3°F16.3°C 40% 1.3 mph NW2.1 kmh NW 3.1 mph5.0 kmh 29.81 in1009.5 mb 0.00 in0.0 mm 0.00 in0.0 mm 0.00 in0.0 mm
05:03 PM 87.8°F31.0°C 61.3°F16.3°C 40% 3.1 mph NW5.0 kmh NW 8.1 mph13.0 kmh 29.81 in1009.5 mb 0.00 in0.0 mm 0.00 in0.0 mm 0.00 in0.0 mm
04:53 PM 88.9°F31.6°C 62.2°F16.8°C 40% 1.2 mph WNW1.9 kmh WNW -- 29.81 in1009.5 mb 0.00 in0.0 mm 0.00 in0.0 mm 0.00 in0.0 mm
04:43 PM 88.5°F31.4°C 61.9°F16.6°C 40% 1.8 mph NW2.9 kmh NW 6.9 mph11.1 kmh 29.81 in1009.5 mb 0.00 in0.0 mm 0.00 in0.0 mm 0.00 in0.0 mm
04:20 PM 89.2°F31.8°C 63.0°F17.2°C 41% 1.3 mph SSW2.1 kmh SSW 4.3 mph6.9 kmh 29.80 in1009.1 mb 0.00 in0.0 mm 0.00 in0.0 mm 0.00 in0.0 mm
04:00 PM 88.5°F31.4°C 62.4°F16.9°C 41% 2.5 mph NW4.0 kmh NW 5.6 mph9.0 kmh 29.81 in1009.5 mb 0.00 in0.0 mm 0.00 in0.0 mm 0.00 in0.0 mm
03:50 PM 88.7°F31.5°C 63.0°F17.2°C 42% 1.9 mph S3.1 kmh S -- 29.82 in1009.8 mb 0.00 in0.0 mm 0.00 in0.0 mm 0.00 in0.0 mm
03:40 PM 87.1°F30.6°C 62.1°F16.7°C 43% 3.1 mph SW5.0 kmh SW 6.9 mph11.1 kmh 29.82 in1009.8 mb 0.00 in0.0 mm 0.00 in0.0 mm 0.00 in0.0 mm
03:20 PM 84.9°F29.4°C 61.9°F16.6°C 47% 1.3 mph S2.1 kmh S 3.1 mph5.0 kmh 29.82 in1009.8 mb 0.00 in0.0 mm 0.00 in0.0 mm 0.00 in0.0 mm
03:00 PM 85.8°F29.9°C 62.2°F16.8°C 46% 3.1 mph W5.0 kmh W 10.5 mph16.9 kmh 29.82 in1009.8 mb 0.00 in0.0 mm 0.00 in0.0 mm 0.00 in0.0 mm
02:49 PM 84.7°F29.3°C 61.7°F16.5°C 47% 1.2 mph N1.9 kmh N -- 29.83 in1010.2 mb 0.00 in0.0 mm 0.00 in0.0 mm 0.00 in0.0 mm
02:40 PM 84.2°F29.0°C 61.2°F16.2°C 47% 1.3 mph S2.1 kmh S 3.8 mph6.1 kmh 29.83 in1010.2 mb 0.00 in0.0 mm 0.00 in0.0 mm 0.00 in0.0 mm
02:20 PM 83.7°F28.7°C 61.5°F16.4°C 49% 3.1 mph NW5.0 kmh NW 9.4 mph15.1 kmh 29.84 in1010.5 mb 0.00 in0.0 mm 0.00 in0.0 mm 0.00 in0.0 mm
02:01 PM 84.2°F29.0°C 62.1°F16.7°C 49% 1.3 mph WNW2.1 kmh WNW 4.3 mph6.9 kmh 29.84 in1010.5 mb 0.00 in0.0 mm 0.00 in0.0 mm 0.00 in0.0 mm
01:51 PM 84.7°F29.3°C 62.6°F17.0°C 49% 1.9 mph SW3.1 kmh SW -- 29.85 in1010.8 mb 0.00 in0.0 mm 0.00 in0.0 mm 0.00 in0.0 mm
01:41 PM 83.8°F28.8°C 62.6°F17.0°C 51% 2.5 mph SSW4.0 kmh SSW 7.4 mph11.9 kmh 29.85 in1010.8 mb 0.00 in0.0 mm 0.00 in0.0 mm 0.00 in0.0 mm
01:21 PM 82.4°F28.0°C 62.6°F17.0°C 54% 1.3 mph SSW2.1 kmh SSW 3.8 mph6.1 kmh 29.86 in1011.2 mb 0.00 in0.0 mm 0.00 in0.0 mm 0.00 in0.0 mm
01:00 PM 81.9°F27.7°C 62.4°F16.9°C 55% 1.8 mph W2.9 kmh W 5.6 mph9.0 kmh 29.85 in1010.8 mb 0.00 in0.0 mm 0.00 in0.0 mm 0.00 in0.0 mm
12:51 PM 81.1°F27.3°C 62.2°F16.8°C 56% 1.2 mph S1.9 kmh S -- 29.86 in1011.2 mb 0.00 in0.0 mm 0.00 in0.0 mm 0.00 in0.0 mm
12:40 PM 79.7°F26.5°C 61.0°F16.1°C 56% 1.3 mph SW2.1 kmh SW 3.8 mph6.1 kmh 29.86 in1011.2 mb 0.00 in0.0 mm 0.00 in0.0 mm 0.00 in0.0 mm
12:20 PM 78.8°F26.0°C 60.4°F15.8°C 57% 3.1 mph WNW5.0 kmh WNW 9.8 mph15.8 kmh 29.86 in1011.2 mb 0.00 in0.0 mm 0.00 in0.0 mm 0.00 in0.0 mm
12:00 PM 79.2°F26.2°C 60.8°F16.0°C 57% 3.1 mph W5.0 kmh W 8.7 mph14.0 kmh 29.87 in1011.5 mb 0.00 in0.0 mm 0.00 in0.0 mm 0.00 in0.0 mm
11:50 AM 79.5°F26.4°C 61.7°F16.5°C 58% 1.2 mph S1.9 kmh S -- 29.87 in1011.5 mb 0.00 in0.0 mm 0.00 in0.0 mm 0.00 in0.0 mm
11:40 AM 78.8°F26.0°C 61.3°F16.3°C 59% 3.1 mph W5.0 kmh W 8.1 mph13.0 kmh 29.87 in1011.5 mb 0.00 in0.0 mm 0.00 in0.0 mm 0.00 in0.0 mm
11:34 AM 78.1°F25.6°C 60.8°F16.0°C 59% 4.9 mph WNW7.9 kmh WNW 8.7 mph14.0 kmh 29.86 in1011.2 mb 0.00 in0.0 mm 0.00 in0.0 mm 0.00 in0.0 mm
11:00 AM 77.9°F25.5°C 61.9°F16.6°C 62% 2.5 mph SSW4.0 kmh SSW 7.4 mph11.9 kmh 29.87 in1011.5 mb 0.00 in0.0 mm 0.00 in0.0 mm 0.00 in0.0 mm
10:54 AM 76.1°F24.5°C 60.6°F15.9°C 63% 3.8 mph WNW6.1 kmh WNW 10.5 mph16.9 kmh 29.87 in1011.5 mb 0.00 in0.0 mm 0.00 in0.0 mm 0.00 in0.0 mm
10:49 AM 76.6°F24.8°C 60.6°F15.9°C 62% 3.7 mph WNW6.0 kmh WNW -- 29.87 in1011.5 mb 0.00 in0.0 mm 0.00 in0.0 mm 0.00 in0.0 mm
10:25 AM 74.5°F23.6°C 60.8°F16.0°C 67% 1.3 mph WNW2.1 kmh WNW 3.1 mph5.0 kmh 29.87 in1011.5 mb 0.00 in0.0 mm 0.00 in0.0 mm 0.00 in0.0 mm
10:04 AM 73.4°F23.0°C 61.0°F16.1°C 70% 1.8 mph W2.9 kmh W 6.9 mph11.1 kmh 29.87 in1011.5 mb 0.00 in0.0 mm 0.00 in0.0 mm 0.00 in0.0 mm
09:54 AM 72.3°F22.4°C 60.4°F15.8°C 71% 1.2 mph SW1.9 kmh SW -- 29.86 in1011.2 mb 0.00 in0.0 mm 0.00 in0.0 mm 0.00 in0.0 mm
09:44 AM 71.6°F22.0°C 60.6°F15.9°C 73% 1.3 mph SSE2.1 kmh SSE 3.8 mph6.1 kmh 29.86 in1011.2 mb 0.00 in0.0 mm 0.00 in0.0 mm 0.00 in0.0 mm
09:24 AM 69.8°F21.0°C 59.7°F15.4°C 75% 1.8 mph NW2.9 kmh NW 4.3 mph6.9 kmh 29.86 in1011.2 mb 0.00 in0.0 mm 0.00 in0.0 mm 0.00 in0.0 mm
09:03 AM 69.4°F20.8°C 59.7°F15.4°C 76% 1.3 mph WNW2.1 kmh WNW 6.9 mph11.1 kmh 29.86 in1011.2 mb 0.00 in0.0 mm 0.00 in0.0 mm 0.00 in0.0 mm
08:54 AM 69.1°F20.6°C 59.4°F15.2°C 76% 1.9 mph W3.1 kmh W -- 29.86 in1011.2 mb 0.00 in0.0 mm 0.00 in0.0 mm 0.00 in0.0 mm
08:44 AM 68.7°F20.4°C 59.5°F15.3°C 77% 1.8 mph W2.9 kmh W 5.6 mph9.0 kmh 29.86 in1011.2 mb 0.00 in0.0 mm 0.00 in0.0 mm 0.00 in0.0 mm
08:23 AM 68.0°F20.0°C 58.8°F14.9°C 77% 4.3 mph WNW6.9 kmh WNW 8.1 mph13.0 kmh 29.86 in1011.2 mb 0.00 in0.0 mm 0.00 in0.0 mm 0.00 in0.0 mm
08:04 AM 67.6°F19.8°C 58.5°F14.7°C 77% 3.8 mph WNW6.1 kmh WNW 7.4 mph11.9 kmh 29.85 in1010.8 mb 0.00 in0.0 mm 0.00 in0.0 mm 0.00 in0.0 mm
07:53 AM 67.5°F19.7°C 58.6°F14.8°C 78% 3.1 mph NW5.0 kmh NW -- 29.85 in1010.8 mb 0.00 in0.0 mm 0.00 in0.0 mm 0.00 in0.0 mm
07:43 AM 67.1°F19.5°C 58.6°F14.8°C 79% 1.8 mph W2.9 kmh W 6.9 mph11.1 kmh 29.85 in1010.8 mb 0.00 in0.0 mm 0.00 in0.0 mm 0.00 in0.0 mm
07:23 AM 65.8°F18.8°C 57.9°F14.4°C 80% 0.7 mph W1.1 kmh W 1.8 mph2.9 kmh 29.85 in1010.8 mb 0.00 in0.0 mm 0.00 in0.0 mm 0.00 in0.0 mm
07:03 AM 65.3°F18.5°C 57.7°F14.3°C 81% 0.7 mph NW1.1 kmh NW 1.8 mph2.9 kmh 29.85 in1010.8 mb 0.00 in0.0 mm 0.00 in0.0 mm 0.00 in0.0 mm
06:53 AM 64.9°F18.3°C 57.4°F14.1°C 81% 0.6 mph W1.0 kmh W -- 29.85 in1010.8 mb 0.00 in0.0 mm 0.00 in0.0 mm 0.00 in0.0 mm
06:42 AM 64.6°F18.1°C 57.0°F13.9°C 81% 0.7 mph SW1.1 kmh SW 1.8 mph2.9 kmh 29.84 in1010.5 mb 0.00 in0.0 mm 0.00 in0.0 mm 0.00 in0.0 mm
06:22 AM 64.0°F17.8°C 57.0°F13.9°C 82% 0.7 mph W1.1 kmh W 1.8 mph2.9 kmh 29.83 in1010.2 mb 0.00 in0.0 mm 0.00 in0.0 mm 0.00 in0.0 mm
06:02 AM 63.1°F17.3°C 56.5°F13.6°C 83% 0.7 mph NW1.1 kmh NW 2.5 mph4.0 kmh 29.83 in1010.2 mb 0.00 in0.0 mm 0.00 in0.0 mm 0.00 in0.0 mm
05:50 AM 62.8°F17.1°C 56.1°F13.4°C 83% 0.6 mph NW1.0 kmh NW -- 29.83 in1010.2 mb 0.00 in0.0 mm 0.00 in0.0 mm 0.00 in0.0 mm
05:39 AM 62.4°F16.9°C 55.8°F13.2°C 83% 1.8 mph WNW2.9 kmh WNW 3.1 mph5.0 kmh 29.83 in1010.2 mb 0.00 in0.0 mm 0.00 in0.0 mm 0.00 in0.0 mm
05:34 AM 61.9°F16.6°C 55.2°F12.9°C 83% 1.3 mph NW2.1 kmh NW 3.1 mph5.0 kmh 29.81 in1009.5 mb 0.00 in0.0 mm 0.00 in0.0 mm 0.00 in0.0 mm
04:59 AM 61.7°F16.5°C 55.0°F12.8°C 83% 1.3 mph NW2.1 kmh NW 3.1 mph5.0 kmh 29.81 in1009.5 mb 0.00 in0.0 mm 0.00 in0.0 mm 0.00 in0.0 mm
04:49 AM 61.5°F16.4°C 54.9°F12.7°C 83% 1.9 mph NW3.1 kmh NW -- 29.80 in1009.1 mb 0.00 in0.0 mm 0.00 in0.0 mm 0.00 in0.0 mm
04:39 AM 61.5°F16.4°C 54.9°F12.7°C 83% 0.7 mph W1.1 kmh W 1.3 mph2.1 kmh 29.80 in1009.1 mb 0.00 in0.0 mm 0.00 in0.0 mm 0.00 in0.0 mm
04:18 AM 62.2°F16.8°C 55.2°F12.9°C 82% 0.7 mph N1.1 kmh N 1.8 mph2.9 kmh 29.79 in1008.8 mb 0.00 in0.0 mm 0.00 in0.0 mm 0.00 in0.0 mm
04:13 AM 63.0°F17.2°C 55.6°F13.1°C 81% 1.3 mph WNW2.1 kmh WNW 2.5 mph4.0 kmh 29.78 in1008.5 mb 0.00 in0.0 mm 0.00 in0.0 mm 0.00 in0.0 mm
03:53 AM 63.7°F17.6°C 55.8°F13.2°C 80% 1.3 mph NW2.1 kmh NW 2.5 mph4.0 kmh 29.78 in1008.5 mb 0.00 in0.0 mm 0.00 in0.0 mm 0.00 in0.0 mm
03:48 AM 63.3°F17.4°C 55.8°F13.2°C 81% 0.6 mph W1.0 kmh W -- 29.78 in1008.5 mb 0.00 in0.0 mm 0.00 in0.0 mm 0.00 in0.0 mm
03:33 AM 63.9°F17.7°C 56.3°F13.5°C 81% 3.1 mph WNW5.0 kmh WNW 6.9 mph11.1 kmh 29.78 in1008.5 mb 0.00 in0.0 mm 0.00 in0.0 mm 0.00 in0.0 mm
02:58 AM 63.9°F17.7°C 56.8°F13.8°C 82% 2.5 mph W4.0 kmh W 5.6 mph9.0 kmh 29.77 in1008.1 mb 0.00 in0.0 mm 0.00 in0.0 mm 0.00 in0.0 mm
02:52 AM 63.5°F17.5°C 56.5°F13.6°C 82% 3.8 mph WNW6.1 kmh WNW 8.7 mph14.0 kmh 29.77 in1008.1 mb 0.00 in0.0 mm 0.00 in0.0 mm 0.00 in0.0 mm
02:48 AM 63.7°F17.6°C 56.7°F13.7°C 82% 3.7 mph W6.0 kmh W -- 29.77 in1008.1 mb 0.00 in0.0 mm 0.00 in0.0 mm 0.00 in0.0 mm
02:28 AM 63.3°F17.4°C 56.3°F13.5°C 82% 1.8 mph NW2.9 kmh NW 4.3 mph6.9 kmh 29.77 in1008.1 mb 0.00 in0.0 mm 0.00 in0.0 mm 0.00 in0.0 mm
02:07 AM 63.3°F17.4°C 56.3°F13.5°C 82% 2.5 mph WNW4.0 kmh WNW 4.9 mph7.9 kmh 29.75 in1007.5 mb 0.00 in0.0 mm 0.00 in0.0 mm 0.00 in0.0 mm
01:57 AM 63.3°F17.4°C 56.3°F13.5°C 82% 1.2 mph NW1.9 kmh NW -- 29.76 in1007.8 mb 0.00 in0.0 mm 0.00 in0.0 mm 0.00 in0.0 mm
01:52 AM 63.7°F17.6°C 56.1°F13.4°C 81% 0.7 mph NW1.1 kmh NW 1.8 mph2.9 kmh 29.75 in1007.5 mb 0.00 in0.0 mm 0.00 in0.0 mm 0.00 in0.0 mm
01:27 AM 64.0°F17.8°C 56.5°F13.6°C 81% 1.3 mph WNW2.1 kmh WNW 3.8 mph6.1 kmh 29.75 in1007.5 mb 0.00 in0.0 mm 0.00 in0.0 mm 0.00 in0.0 mm
01:07 AM 64.4°F18.0°C 56.5°F13.6°C 80% 2.5 mph WNW4.0 kmh WNW 4.9 mph7.9 kmh 29.75 in1007.5 mb 0.00 in0.0 mm 0.00 in0.0 mm 0.00 in0.0 mm
12:56 AM 64.4°F18.0°C 56.1°F13.4°C 79% 3.1 mph WNW5.0 kmh WNW -- 29.75 in1007.5 mb 0.00 in0.0 mm 0.00 in0.0 mm 0.00 in0.0 mm
12:46 AM 64.4°F18.0°C 55.8°F13.2°C 78% 0.7 mph W1.1 kmh W 1.8 mph2.9 kmh 29.74 in1007.1 mb 0.00 in0.0 mm 0.00 in0.0 mm 0.00 in0.0 mm
12:27 AM 64.6°F18.1°C 55.4°F13.0°C 77% 0.7 mph E1.1 kmh E 2.5 mph4.0 kmh 29.73 in1006.8 mb 0.00 in0.0 mm 0.00 in0.0 mm 0.00 in0.0 mm
12:06 AM 64.9°F18.3°C 55.8°F13.2°C 77% 1.3 mph SE2.1 kmh SE 3.8 mph6.1 kmh 29.72 in1006.4 mb 0.00 in0.0 mm 0.00 in0.0 mm 0.00 in0.0 mm